createdAt,value
2017-09-17T00:00:21.690Z,13.73
2017-09-17T00:05:23.887Z,13.80
2017-09-17T00:10:26.607Z,13.84
2017-09-17T00:15:28.626Z,13.84
2017-09-17T00:20:31.044Z,14.07
2017-09-17T00:25:33.478Z,14.24
2017-09-17T00:30:35.526Z,14.22
2017-09-17T00:35:38.002Z,14.12
2017-09-17T00:40:40.063Z,14.14
2017-09-17T00:45:42.069Z,14.01
2017-09-17T00:50:45.176Z,13.91
2017-09-17T00:55:47.217Z,13.78
2017-09-17T01:00:49.268Z,13.63
2017-09-17T01:05:53.264Z,13.54
2017-09-17T01:10:56.085Z,13.37
2017-09-17T01:15:58.223Z,13.25
2017-09-17T01:21:01.039Z,13.20
2017-09-17T01:26:02.998Z,13.15
2017-09-17T01:31:05.014Z,13.13
2017-09-17T01:36:07.017Z,13.08
2017-09-17T01:41:09.715Z,13.00
2017-09-17T01:46:11.676Z,12.99
2017-09-17T01:51:13.646Z,13.02
2017-09-17T01:56:15.698Z,13.04
2017-09-17T02:01:17.704Z,13.02
2017-09-17T02:06:19.762Z,12.97
2017-09-17T02:11:21.815Z,12.91
2017-09-17T02:16:23.793Z,12.86
2017-09-17T02:21:25.800Z,12.77
2017-09-17T02:26:27.884Z,12.60
2017-09-17T02:31:29.865Z,12.48
2017-09-17T02:36:31.974Z,12.41
2017-09-17T02:41:33.999Z,12.40
2017-09-17T02:46:35.989Z,12.34
2017-09-17T02:51:37.972Z,12.28
2017-09-17T02:56:39.952Z,12.25
2017-09-17T03:01:41.919Z,12.25
2017-09-17T03:06:43.887Z,12.52
2017-09-17T03:11:45.916Z,12.63
2017-09-17T03:16:47.978Z,12.70
2017-09-17T03:21:49.966Z,12.85
2017-09-17T03:26:52.638Z,12.98
2017-09-17T03:31:55.419Z,13.10
2017-09-17T03:36:57.450Z,13.21
2017-09-17T03:41:59.507Z,13.32
2017-09-17T03:47:01.552Z,13.36
2017-09-17T03:52:03.566Z,13.36
2017-09-17T03:57:05.540Z,13.34
2017-09-17T04:02:08.360Z,13.21
2017-09-17T04:07:10.376Z,13.11
2017-09-17T04:12:12.379Z,12.85
2017-09-17T04:17:14.427Z,12.70
2017-09-17T04:22:16.509Z,12.55
2017-09-17T04:27:18.533Z,12.50
2017-09-17T04:32:20.515Z,12.37
2017-09-17T04:37:22.786Z,12.43
2017-09-17T04:42:24.781Z,12.42
2017-09-17T04:47:26.798Z,12.45
2017-09-17T04:52:28.821Z,12.52
2017-09-17T04:57:30.820Z,12.47
2017-09-17T05:02:32.827Z,12.45
2017-09-17T05:07:34.820Z,12.43
2017-09-17T05:12:36.879Z,12.38
2017-09-17T05:17:38.907Z,12.28
2017-09-17T05:22:40.873Z,12.17
2017-09-17T05:27:42.890Z,12.23
2017-09-17T05:32:44.859Z,12.26
2017-09-17T05:37:47.020Z,12.22
2017-09-17T05:42:49.745Z,12.14
2017-09-17T05:47:51.724Z,12.10
2017-09-17T05:52:53.720Z,12.18
2017-09-17T05:57:55.702Z,12.29
2017-09-17T06:02:57.662Z,12.34
2017-09-17T06:07:59.682Z,12.44
2017-09-17T06:13:01.653Z,12.54
2017-09-17T06:18:03.933Z,12.72
2017-09-17T06:23:06.014Z,12.96
2017-09-17T06:28:11.077Z,13.07
2017-09-17T06:33:13.028Z,13.29
2017-09-17T06:38:15.134Z,13.48
2017-09-17T06:43:17.202Z,13.67
2017-09-17T06:48:19.313Z,13.78
2017-09-17T06:53:22.051Z,13.98
2017-09-17T06:58:24.181Z,14.09
2017-09-17T07:03:26.208Z,14.22
2017-09-17T07:08:29.420Z,14.43
2017-09-17T07:13:31.628Z,14.75
2017-09-17T07:18:33.640Z,15.09
2017-09-17T07:23:35.762Z,15.51
2017-09-17T07:28:37.721Z,15.87
2017-09-17T07:33:40.245Z,16.23
2017-09-17T07:38:42.384Z,16.34
2017-09-17T07:43:53.069Z,16.35
2017-09-17T07:48:56.439Z,16.50
2017-09-17T07:53:58.616Z,16.85
2017-09-17T07:59:01.029Z,17.09
2017-09-17T08:04:03.611Z,17.07
2017-09-17T08:09:05.850Z,16.87
2017-09-17T08:14:08.443Z,16.70
2017-09-17T08:19:10.712Z,16.65
2017-09-17T08:24:12.802Z,16.82
2017-09-17T08:29:14.804Z,17.12
2017-09-17T08:34:16.864Z,17.37
2017-09-17T08:39:18.860Z,17.52
2017-09-17T08:44:20.857Z,17.82
2017-09-17T08:49:22.859Z,17.85
2017-09-17T08:54:24.857Z,18.06
2017-09-17T08:59:26.799Z,18.19
2017-09-17T09:04:28.841Z,18.31
2017-09-17T09:09:30.851Z,18.16
2017-09-17T09:14:32.828Z,17.92
2017-09-17T09:19:35.539Z,17.88
2017-09-17T09:24:37.631Z,17.74
2017-09-17T09:29:39.601Z,17.66
2017-09-17T09:34:41.570Z,17.90
2017-09-17T09:39:43.521Z,18.14
2017-09-17T09:44:51.543Z,18.29
2017-09-17T09:49:53.536Z,18.42
2017-09-17T09:54:55.480Z,18.65
2017-09-17T09:59:57.490Z,19.00
2017-09-17T10:04:59.438Z,19.34
2017-09-17T10:10:01.376Z,19.61
2017-09-17T10:15:03.419Z,20.13
2017-09-17T10:20:07.430Z,20.00
2017-09-17T10:25:09.485Z,19.81
2017-09-17T10:30:12.129Z,19.61
2017-09-17T10:35:14.080Z,19.93
2017-09-17T10:40:16.159Z,20.07
2017-09-17T10:45:18.092Z,20.22
2017-09-17T10:50:20.073Z,20.45
2017-09-17T10:55:22.154Z,20.61
2017-09-17T11:00:24.852Z,20.55
2017-09-17T11:05:26.964Z,20.49
2017-09-17T11:10:30.008Z,20.47
2017-09-17T11:15:31.980Z,20.54
2017-09-17T11:20:34.696Z,20.59
2017-09-17T11:25:36.668Z,20.57
2017-09-17T11:30:38.599Z,20.58
2017-09-17T11:35:40.535Z,20.66
2017-09-17T11:40:42.477Z,20.39
2017-09-17T11:45:44.551Z,20.40
2017-09-17T11:50:46.692Z,20.61
2017-09-17T11:55:48.690Z,20.78
2017-09-17T12:00:51.393Z,20.68
2017-09-17T12:05:53.373Z,20.86
2017-09-17T12:10:55.372Z,21.07
2017-09-17T12:15:58.114Z,21.11
2017-09-17T12:21:00.265Z,20.96
2017-09-17T12:26:02.245Z,21.46
2017-09-17T12:31:04.289Z,21.90
2017-09-17T12:36:06.359Z,21.97
2017-09-17T12:41:08.434Z,22.05
2017-09-17T12:46:14.156Z,22.00
2017-09-17T12:51:16.124Z,21.75
2017-09-17T12:56:18.839Z,21.57
2017-09-17T13:01:20.923Z,21.27
2017-09-17T13:06:22.887Z,21.17
2017-09-17T13:11:24.964Z,21.26
2017-09-17T13:16:27.234Z,21.37
2017-09-17T13:21:29.948Z,21.22
2017-09-17T13:26:32.013Z,21.01
2017-09-17T13:31:34.753Z,20.76
2017-09-17T13:36:36.811Z,20.63
2017-09-17T13:41:38.802Z,20.45
2017-09-17T13:46:40.813Z,20.38
2017-09-17T13:51:42.814Z,20.48
2017-09-17T13:56:44.835Z,20.45
2017-09-17T14:02:04.672Z,20.34
2017-09-17T14:07:11.274Z,20.19
2017-09-17T14:12:14.043Z,20.13
2017-09-17T14:17:16.787Z,20.27
2017-09-17T14:22:20.075Z,20.39
2017-09-17T14:27:22.240Z,20.69
2017-09-17T14:32:24.669Z,21.38
2017-09-17T14:37:26.831Z,22.06
2017-09-17T14:42:31.303Z,22.57
2017-09-17T14:47:33.464Z,22.93
2017-09-17T14:52:35.507Z,23.27
2017-09-17T14:57:37.465Z,23.36
2017-09-17T15:02:39.592Z,23.30
2017-09-17T15:07:41.544Z,23.11
2017-09-17T15:12:44.687Z,23.04
2017-09-17T15:17:47.417Z,23.29
2017-09-17T15:22:49.411Z,23.30
2017-09-17T15:27:51.402Z,22.99
2017-09-17T15:32:53.427Z,22.63
2017-09-17T15:37:55.435Z,22.33
2017-09-17T15:42:57.392Z,22.11
2017-09-17T15:47:59.460Z,21.96
2017-09-17T15:53:01.443Z,21.83
2017-09-17T15:58:03.431Z,21.64
2017-09-17T16:03:06.195Z,21.27
2017-09-17T16:08:08.273Z,20.86
2017-09-17T16:13:10.252Z,20.52
2017-09-17T16:18:12.225Z,20.26
2017-09-17T16:23:14.269Z,19.95
2017-09-17T16:28:16.215Z,19.63
2017-09-17T16:33:18.930Z,19.49
2017-09-17T16:38:20.980Z,19.26
2017-09-17T16:43:23.461Z,18.97
2017-09-17T16:48:25.894Z,18.72
2017-09-17T16:53:27.931Z,18.53
2017-09-17T16:58:29.919Z,18.37
2017-09-17T17:03:32.273Z,18.22
2017-09-17T17:08:34.814Z,18.03
2017-09-17T17:13:36.957Z,17.82
2017-09-17T17:18:40.235Z,17.65
2017-09-17T17:23:45.403Z,17.52
2017-09-17T17:28:48.960Z,17.33
2017-09-17T17:33:51.717Z,17.17
2017-09-17T17:38:56.131Z,17.06
2017-09-17T17:43:58.528Z,16.90
2017-09-17T17:49:00.639Z,16.78
2017-09-17T17:54:05.725Z,16.64
2017-09-17T17:59:08.497Z,16.52
2017-09-17T18:04:11.421Z,16.40
2017-09-17T18:09:16.158Z,16.25
2017-09-17T18:14:19.430Z,15.89
2017-09-17T18:19:21.544Z,15.90
2017-09-17T18:24:23.515Z,15.67
2017-09-17T18:29:25.598Z,15.66
2017-09-17T18:34:27.691Z,15.39
2017-09-17T18:39:31.579Z,15.22
2017-09-17T18:44:36.274Z,15.35
2017-09-17T18:49:38.948Z,14.95
2017-09-17T18:54:41.275Z,15.00
2017-09-17T18:59:43.297Z,14.85
2017-09-17T19:04:45.528Z,14.85
2017-09-17T19:09:47.600Z,14.82
2017-09-17T19:14:49.633Z,14.79
2017-09-17T19:19:51.618Z,14.57
2017-09-17T19:24:55.743Z,14.69
2017-09-17T19:29:57.909Z,14.73
2017-09-17T19:35:00.225Z,14.54
2017-09-17T19:40:03.924Z,14.57
2017-09-17T19:45:06.429Z,14.60
2017-09-17T19:50:08.942Z,14.51
2017-09-17T19:55:11.273Z,14.56
2017-09-17T20:00:13.288Z,14.52
2017-09-17T20:05:15.287Z,14.45
2017-09-17T20:10:17.326Z,14.46
2017-09-17T20:15:19.281Z,14.52
2017-09-17T20:20:21.322Z,14.55
2017-09-17T20:25:24.048Z,14.36
2017-09-17T20:30:26.034Z,14.32
2017-09-17T20:35:28.043Z,14.00
2017-09-17T20:40:30.027Z,13.58
2017-09-17T20:45:32.035Z,13.90
2017-09-17T20:50:34.024Z,13.86
2017-09-17T20:55:36.866Z,14.06
2017-09-17T21:00:38.838Z,14.26
2017-09-17T21:05:42.170Z,14.22
2017-09-17T21:10:44.149Z,14.12
2017-09-17T21:15:46.900Z,14.04
2017-09-17T21:20:48.935Z,13.82
2017-09-17T21:25:50.947Z,13.90
2017-09-17T21:30:52.959Z,13.72
2017-09-17T21:35:55.331Z,13.74
2017-09-17T21:40:58.186Z,13.62
2017-09-17T21:46:00.524Z,13.54
2017-09-17T21:51:02.886Z,13.50
2017-09-17T21:56:05.124Z,13.42
2017-09-17T22:01:07.219Z,13.47
2017-09-17T22:06:09.284Z,13.36
2017-09-17T22:11:12.037Z,13.15
2017-09-17T22:16:14.049Z,13.03
2017-09-17T22:21:16.059Z,13.07
2017-09-17T22:26:18.067Z,13.01
2017-09-17T22:31:20.079Z,12.86
2017-09-17T22:36:22.118Z,12.87
2017-09-17T22:41:24.127Z,12.88
2017-09-17T22:46:26.081Z,12.87
2017-09-17T22:51:28.792Z,12.76
2017-09-17T22:56:30.744Z,12.77
2017-09-17T23:01:32.739Z,12.73
2017-09-17T23:06:35.631Z,12.45
2017-09-17T23:11:37.633Z,12.26
2017-09-17T23:16:39.667Z,12.37
2017-09-17T23:21:41.652Z,12.49
2017-09-17T23:26:43.616Z,12.51
2017-09-17T23:31:45.606Z,12.45
2017-09-17T23:36:47.623Z,12.36
2017-09-17T23:41:49.627Z,12.36
2017-09-17T23:46:52.268Z,12.43
2017-09-17T23:51:54.908Z,12.24
2017-09-17T23:56:56.861Z,12.14
